createdAt,value
2023-09-17T04:02:08.639Z,17.16
2023-09-17T04:06:20.758Z,17.09
2023-09-17T04:10:32.944Z,17.03
2023-09-17T04:14:45.298Z,17.00
2023-09-17T04:18:57.567Z,17.00
2023-09-17T04:23:10.524Z,16.99
2023-09-17T04:27:22.583Z,16.92
2023-09-17T04:31:34.514Z,16.89
2023-09-17T04:35:46.354Z,16.83
2023-09-17T04:39:58.328Z,16.80
2023-09-17T04:44:11.642Z,16.77
2023-09-17T04:48:24.541Z,16.68
2023-09-17T04:52:37.942Z,16.60
2023-09-17T04:56:49.793Z,16.56
2023-09-17T05:01:02.146Z,16.46
2023-09-17T05:05:15.209Z,16.45
2023-09-17T05:09:27.350Z,16.43
2023-09-17T05:13:39.273Z,16.44
2023-09-17T05:17:51.596Z,16.42
2023-09-17T05:22:04.771Z,16.39
2023-09-17T05:26:18.295Z,16.38
2023-09-17T05:30:30.360Z,16.38
2023-09-17T05:34:43.280Z,16.41
2023-09-17T05:38:56.594Z,16.38
2023-09-17T05:43:08.657Z,16.44
2023-09-17T05:47:21.221Z,16.45
2023-09-17T05:51:32.970Z,16.56
2023-09-17T05:55:44.687Z,16.58
2023-09-17T05:59:56.362Z,16.64
2023-09-17T06:04:08.062Z,16.86
2023-09-17T06:08:19.863Z,17.07
2023-09-17T06:12:31.655Z,17.10
2023-09-17T06:16:56.796Z,17.20
2023-09-17T06:21:10.196Z,17.30
2023-09-17T06:25:24.725Z,17.42
2023-09-17T06:29:36.548Z,17.59
2023-09-17T06:33:48.804Z,17.75
2023-09-17T06:38:00.688Z,17.81
2023-09-17T06:42:13.024Z,17.99
2023-09-17T06:46:25.613Z,17.99
2023-09-17T06:50:37.338Z,18.00
2023-09-17T06:54:48.894Z,19.00
2023-09-17T06:59:00.470Z,21.54
2023-09-17T07:03:12.069Z,21.49
2023-09-17T07:07:23.692Z,21.09
2023-09-17T07:11:35.257Z,20.37
2023-09-17T07:15:46.901Z,20.00
2023-09-17T07:19:58.597Z,20.31
2023-09-17T07:24:10.496Z,20.45
2023-09-17T07:28:22.084Z,20.53
2023-09-17T07:32:33.788Z,20.65
2023-09-17T07:36:45.533Z,20.63
2023-09-17T07:40:57.169Z,21.08
2023-09-17T07:45:10.088Z,21.42
2023-09-17T07:49:26.011Z,21.75
2023-09-17T07:53:37.747Z,22.01
2023-09-17T07:57:49.396Z,22.06
2023-09-17T08:02:01.109Z,22.03
2023-09-17T08:06:13.391Z,22.03
2023-09-17T08:10:25.033Z,22.00
2023-09-17T08:14:37.585Z,22.09
2023-09-17T08:18:49.464Z,22.05
2023-09-17T08:23:01.155Z,22.04
2023-09-17T08:27:15.205Z,22.09
2023-09-17T08:31:29.332Z,22.27
2023-09-17T08:35:41.111Z,22.28
2023-09-17T08:39:52.707Z,22.25
2023-09-17T08:44:05.582Z,22.39
2023-09-17T08:48:18.479Z,22.58
2023-09-17T08:52:34.163Z,22.72
2023-09-17T08:56:47.230Z,22.85
2023-09-17T09:01:04.418Z,22.94
2023-09-17T09:05:18.213Z,23.09
2023-09-17T09:09:31.266Z,23.18
2023-09-17T09:13:43.577Z,23.32
2023-09-17T09:17:56.449Z,23.54
2023-09-17T09:22:08.329Z,23.64
2023-09-17T09:26:21.698Z,23.70
2023-09-17T09:30:33.498Z,23.78
2023-09-17T09:34:47.569Z,23.88
2023-09-17T09:38:59.261Z,24.03
2023-09-17T09:43:30.933Z,24.07
2023-09-17T09:47:52.835Z,24.22
2023-09-17T09:52:04.943Z,24.32
2023-09-17T09:56:16.714Z,24.47
2023-09-17T10:00:30.245Z,24.55
2023-09-17T10:04:45.468Z,24.68
2023-09-17T10:08:57.362Z,24.61
2023-09-17T10:13:12.729Z,24.61
2023-09-17T10:17:25.078Z,24.74
2023-09-17T10:21:39.231Z,24.84
2023-09-17T10:25:52.373Z,24.91
2023-09-17T10:30:05.991Z,25.02
2023-09-17T10:34:18.289Z,25.17
2023-09-17T10:38:33.226Z,25.30
2023-09-17T10:42:47.141Z,25.37
2023-09-17T10:47:00.613Z,25.49
2023-09-17T10:51:13.182Z,25.61
2023-09-17T10:55:29.679Z,25.64
2023-09-17T10:59:41.742Z,25.66
2023-09-17T11:03:59.560Z,25.84
2023-09-17T11:08:11.465Z,25.97
2023-09-17T11:12:25.071Z,26.04
2023-09-17T11:16:37.715Z,26.09
2023-09-17T11:21:01.624Z,25.97
2023-09-17T11:25:13.799Z,25.91
2023-09-17T11:29:40.144Z,25.90
2023-09-17T11:33:52.523Z,25.96
2023-09-17T11:38:04.428Z,26.04
2023-09-17T11:42:16.068Z,26.12
2023-09-17T11:46:27.642Z,26.28
2023-09-17T11:50:39.224Z,26.41
2023-09-17T11:54:52.668Z,26.54
2023-09-17T11:59:10.219Z,26.60
2023-09-17T12:03:23.359Z,26.63
2023-09-17T12:07:45.772Z,26.74
2023-09-17T12:12:05.618Z,26.80
2023-09-17T12:16:17.977Z,26.85
2023-09-17T12:20:53.090Z,26.90
2023-09-17T12:25:12.016Z,26.85
2023-09-17T12:29:23.564Z,27.07
2023-09-17T12:33:35.238Z,27.11
2023-09-17T12:37:46.816Z,27.13
2023-09-17T12:41:58.484Z,27.05
2023-09-17T12:46:10.096Z,27.13
2023-09-17T12:50:21.866Z,27.19
2023-09-17T12:54:33.721Z,27.18
2023-09-17T12:58:50.216Z,27.25
2023-09-17T13:03:16.086Z,27.34
2023-09-17T13:07:30.811Z,27.28
2023-09-17T13:11:42.420Z,27.24
2023-09-17T13:15:55.380Z,27.47
2023-09-17T13:20:08.174Z,27.53
2023-09-17T13:24:20.531Z,27.79
2023-09-17T13:28:32.158Z,27.65
2023-09-17T13:32:43.776Z,27.72
2023-09-17T13:36:57.690Z,27.72
2023-09-17T13:41:09.435Z,27.79
2023-09-17T13:45:21.357Z,27.93
2023-09-17T13:49:32.912Z,27.73
2023-09-17T13:53:44.596Z,27.79
2023-09-17T13:57:56.232Z,27.59
2023-09-17T14:02:08.018Z,27.21
2023-09-17T14:06:19.568Z,26.92
2023-09-17T14:10:31.142Z,26.73
2023-09-17T14:14:42.690Z,26.85
2023-09-17T14:18:54.388Z,26.92
2023-09-17T14:23:06.158Z,26.79
2023-09-17T14:27:17.729Z,26.63
2023-09-17T14:31:29.286Z,26.49
2023-09-17T14:35:40.820Z,26.49
2023-09-17T14:39:52.455Z,26.52
2023-09-17T14:44:04.073Z,26.47
2023-09-17T14:48:15.687Z,26.50
2023-09-17T14:52:27.243Z,26.60
2023-09-17T14:56:38.802Z,26.61
2023-09-17T15:00:51.298Z,26.70
2023-09-17T15:05:03.680Z,26.89
2023-09-17T15:09:15.266Z,26.90
2023-09-17T15:13:27.270Z,26.84
2023-09-17T15:17:38.922Z,26.77
2023-09-17T15:21:50.557Z,26.71
2023-09-17T15:26:02.146Z,26.71
2023-09-17T15:30:14.331Z,26.81
2023-09-17T15:34:28.194Z,26.92
2023-09-17T15:38:39.889Z,26.93
2023-09-17T15:42:51.563Z,26.77
2023-09-17T15:47:04.606Z,26.66
2023-09-17T15:51:16.354Z,26.53
2023-09-17T15:55:27.896Z,26.45
2023-09-17T15:59:39.493Z,26.29
2023-09-17T16:03:51.352Z,26.18
2023-09-17T16:08:03.336Z,26.02
2023-09-17T16:12:15.521Z,25.95
2023-09-17T16:16:27.190Z,25.90
2023-09-17T16:20:39.662Z,25.90
2023-09-17T16:24:51.286Z,25.87
2023-09-17T16:29:02.879Z,25.79
2023-09-17T16:33:14.635Z,25.70
2023-09-17T16:37:26.587Z,25.54
2023-09-17T16:41:38.281Z,25.47
2023-09-17T16:45:49.860Z,25.46
2023-09-17T16:50:01.932Z,25.44
2023-09-17T16:54:14.144Z,25.43
2023-09-17T16:58:25.700Z,25.39
2023-09-17T17:02:37.333Z,25.31
2023-09-17T17:06:49.048Z,25.17
2023-09-17T17:11:00.709Z,25.04
2023-09-17T17:15:12.324Z,24.87
2023-09-17T17:19:23.866Z,24.70
2023-09-17T17:23:36.276Z,24.50
2023-09-17T17:27:49.424Z,24.29
2023-09-17T17:32:00.978Z,24.07
2023-09-17T17:36:12.580Z,23.87
2023-09-17T17:40:26.567Z,23.64
2023-09-17T17:44:38.174Z,23.47
2023-09-17T17:48:51.166Z,23.27
2023-09-17T17:53:02.868Z,23.12
2023-09-17T17:57:15.700Z,22.96
2023-09-17T18:01:27.625Z,22.81
2023-09-17T18:05:39.706Z,22.63
2023-09-17T18:09:52.510Z,22.51
2023-09-17T18:14:04.239Z,22.36
2023-09-17T18:18:16.751Z,22.20
2023-09-17T18:22:28.587Z,22.06
2023-09-17T18:26:40.145Z,21.90
2023-09-17T18:30:54.983Z,21.78
2023-09-17T18:35:06.765Z,21.75
2023-09-17T18:39:20.203Z,21.64
2023-09-17T18:43:31.853Z,21.54
2023-09-17T18:47:44.210Z,21.46
2023-09-17T18:51:55.906Z,21.33
2023-09-17T18:56:07.715Z,21.31
2023-09-17T19:00:19.528Z,21.18
2023-09-17T19:04:31.278Z,21.10
2023-09-17T19:08:42.988Z,21.00
2023-09-17T19:12:57.847Z,20.94
2023-09-17T19:17:09.605Z,20.85
2023-09-17T19:21:21.238Z,20.77
2023-09-17T19:25:33.962Z,20.69
2023-09-17T19:29:45.556Z,20.59
2023-09-17T19:33:57.160Z,20.54
2023-09-17T19:38:08.811Z,20.43
2023-09-17T19:42:21.504Z,20.32
2023-09-17T19:46:33.238Z,20.25
2023-09-17T19:50:46.043Z,20.27
2023-09-17T19:54:57.752Z,20.15
2023-09-17T19:59:10.075Z,20.10
2023-09-17T20:03:24.582Z,19.98
2023-09-17T20:07:38.132Z,19.93
2023-09-17T20:11:49.825Z,19.89
2023-09-17T20:16:01.630Z,19.76
2023-09-17T20:20:13.678Z,19.67
2023-09-17T20:24:25.456Z,19.64
2023-09-17T20:28:38.529Z,19.58
2023-09-17T20:32:50.199Z,19.52
2023-09-17T20:37:03.742Z,19.46
2023-09-17T20:41:15.509Z,19.40
2023-09-17T20:45:27.205Z,19.33
2023-09-17T20:49:38.809Z,19.25
2023-09-17T20:53:51.141Z,19.23
2023-09-17T20:58:03.038Z,19.17
2023-09-17T21:02:14.716Z,19.11
2023-09-17T21:06:26.406Z,19.03
2023-09-17T21:10:37.946Z,19.01
2023-09-17T21:14:50.566Z,18.89
2023-09-17T21:19:02.109Z,18.84
2023-09-17T21:23:13.816Z,18.75
2023-09-17T21:27:29.105Z,18.73
